Time;durP1;ratioP1;P1;durP2;ratioP2;P2;SDS_P1;SDS_P2;PMS_P1;PMS_P2;Temp;Humidity;BMP_temperature;BMP_pressure;BME280_temperature;BME280_humidity;BME280_pressure;Samples;Min_cycle;Max_cycle;Signal;HPM_P1;HPM_P2
2020/12/30 00:00:56;;;;;;;6.45;3.95;;;;;;;5.55;80.62;99290.72;4975260;28;20499;-65
2020/12/30 00:03:23;;;;;;;7.32;4.00;;;;;;;5.80;80.75;99282.91;4974716;28;20055;-66
2020/12/30 00:05:50;;;;;;;6.65;3.60;;;;;;;5.67;80.76;99299.09;4974495;28;20058;-66
2020/12/30 00:08:17;;;;;;;7.15;3.88;;;;;;;5.63;80.91;99294.59;4973901;28;20050;-66
2020/12/30 00:10:44;;;;;;;6.55;3.72;;;;;;;5.72;81.05;99298.16;4974242;28;20039;-67
2020/12/30 00:13:11;;;;;;;9.05;4.38;;;;;;;6.20;80.43;99298.16;4975362;28;20059;-64
2020/12/30 00:15:38;;;;;;;6.57;4.00;;;;;;;6.12;79.81;99305.22;4974474;28;20050;-67
2020/12/30 00:18:05;;;;;;;10.13;4.70;;;;;;;5.84;81.73;99303.84;4974332;28;20055;-65
2020/12/30 00:20:33;;;;;;;6.85;3.78;;;;;;;5.86;81.70;99304.34;4973928;28;20062;-64
2020/12/30 00:23:00;;;;;;;7.03;4.10;;;;;;;5.81;82.57;99304.44;4974119;28;20055;-65
2020/12/30 00:25:27;;;;;;;8.45;3.95;;;;;;;5.88;82.30;99307.56;4973845;28;20495;-65
2020/12/30 00:27:55;;;;;;;8.05;4.43;;;;;;;5.59;83.82;99312.72;4957067;28;20057;-65
2020/12/30 00:30:22;;;;;;;8.23;4.65;;;;;;;5.73;84.22;99307.97;4973639;28;20479;-67
2020/12/30 00:37:17;;;;;;;7.18;4.50;;;;;;;5.55;84.33;99315.28;4975305;28;20061;-65
2020/12/30 00:39:44;;;;;;;8.45;4.95;;;;;;;5.57;84.64;99328.63;4974537;28;20051;-66
2020/12/30 00:42:11;;;;;;;7.65;4.93;;;;;;;5.48;85.10;99325.84;4975173;28;20058;-66
2020/12/30 00:44:38;;;;;;;7.93;4.95;;;;;;;5.19;87.00;99330.19;4990742;28;20402;-64
2020/12/30 00:51:33;;;;;;;10.05;4.88;;;;;;;5.41;86.22;99332.88;4989228;28;20073;-67
2020/12/30 00:54:01;;;;;;;9.45;4.75;;;;;;;5.41;85.73;99332.88;4973616;28;20051;-65
2020/12/30 00:56:31;;;;;;;7.55;4.95;;;;;;;5.65;85.79;99339.59;4973867;28;20105;-64
2020/12/30 00:58:57;;;;;;;9.20;6.30;;;;;;;5.19;86.49;99344.66;4989468;28;20059;-67
2020/12/30 01:05:51;;;;;;;10.77;7.32;;;;;;;5.25;87.57;99357.03;4955337;28;20387;-67
2020/12/30 01:08:19;;;;;;;11.02;7.13;;;;;;;5.24;86.47;99360.06;4955016;29;20062;-65
2020/12/30 01:10:46;;;;;;;11.38;7.68;;;;;;;5.43;85.22;99368.88;4954445;29;20062;-66
2020/12/30 01:13:13;;;;;;;11.60;8.02;;;;;;;5.23;85.21;99358.47;4955176;28;20059;-64
2020/12/30 01:15:41;;;;;;;12.63;8.43;;;;;;;5.41;84.39;99368.38;4968968;28;20066;-64
2020/12/30 01:18:07;;;;;;;13.43;8.90;;;;;;;5.33;84.53;99380.06;4954232;29;20071;-66
2020/12/30 01:20:34;;;;;;;16.05;9.25;;;;;;;5.30;84.28;99384.19;4969345;28;20051;-64
2020/12/30 01:23:01;;;;;;;16.48;9.05;;;;;;;5.23;83.69;99391.22;4953822;28;20503;-65
2020/12/30 01:25:28;;;;;;;15.85;10.52;;;;;;;5.55;83.62;99396.41;4954679;28;20059;-64
2020/12/30 01:27:55;;;;;;;14.73;9.45;;;;;;;5.32;83.92;99400.25;4954026;29;20058;-65
2020/12/30 01:30:23;;;;;;;18.60;9.80;;;;;;;5.35;84.43;99400.44;4953568;28;20491;-66
2020/12/30 01:32:50;;;;;;;14.88;10.20;;;;;;;5.51;84.46;99400.88;4953898;29;20059;-65
2020/12/30 01:35:19;;;;;;;15.63;11.10;;;;;;;5.05;85.34;99409.41;4954506;28;20055;-63
2020/12/30 01:37:49;;;;;;;18.73;12.82;;;;;;;5.04;86.39;99421.41;4954790;28;20051;-63
2020/12/30 01:40:38;;;;;;;18.40;13.13;;;;;;;5.22;85.55;99419.63;4957606;29;20495;-64
2020/12/30 01:43:05;;;;;;;21.23;13.15;;;;;;;5.26;84.81;99426.91;4940465;29;20066;-65
2020/12/30 01:45:47;;;;;;;22.10;13.82;;;;;;;5.12;84.88;99436.25;4957345;29;20399;-65
2020/12/30 01:48:20;;;;;;;22.13;14.90;;;;;;;5.13;84.79;99435.13;4957163;29;20396;-63
2020/12/30 01:50:47;;;;;;;22.55;14.05;;;;;;;5.28;84.22;99441.03;4956266;29;20055;-66
2020/12/30 01:57:38;;;;;;;20.50;13.68;;;;;;;5.25;84.39;99452.56;4957633;29;20047;-65
2020/12/30 02:00:42;;;;;;;20.33;13.05;;;;;;;5.20;84.38;99451.88;4957303;29;20051;-65
2020/12/30 02:08:06;;;;;;;19.70;11.82;;;;;;;4.94;84.36;99470.75;4974880;28;20038;-64
2020/12/30 02:10:47;;;;;;;22.25;12.30;;;;;;;4.79;86.21;99473.03;4976933;28;20050;-65
2020/12/30 02:13:14;;;;;;;18.60;12.02;;;;;;;4.89;85.95;99478.25;4976375;28;20058;-64
2020/12/30 02:15:41;;;;;;;18.67;12.02;;;;;;;4.95;85.36;99475.09;4976521;28;20054;-64
2020/12/30 02:22:55;;;;;;;18.98;11.68;;;;;;;4.47;86.58;99495.75;4976202;28;20050;-64
2020/12/30 02:25:23;;;;;;;20.58;13.23;;;;;;;4.73;86.26;99498.78;4976576;28;20050;-67
2020/12/30 02:27:50;;;;;;;22.10;12.50;;;;;;;4.77;86.64;99497.06;4977985;28;20136;-65
2020/12/30 02:30:18;;;;;;;18.77;12.48;;;;;;;4.84;86.02;99500.19;4977121;28;20132;-66
2020/12/30 02:32:46;;;;;;;22.05;12.82;;;;;;;4.98;85.70;99504.50;4976894;28;20058;-65
2020/12/30 02:35:23;;;;;;;23.25;12.93;;;;;;;5.04;85.56;99508.72;4975878;28;20055;-63
2020/12/30 02:37:55;;;;;;;21.27;13.65;;;;;;;4.69;86.07;99527.78;4976210;28;20055;-65
2020/12/30 02:41:10;;;;;;;21.20;13.05;;;;;;;4.57;87.28;99523.63;4975771;28;20247;-64
2020/12/30 02:44:14;;;;;;;21.48;12.57;;;;;;;4.80;87.25;99534.63;4972714;28;20053;-63
2020/12/30 02:51:09;;;;;;;21.92;14.07;;;;;;;4.88;85.31;99547.56;4975451;28;20054;-66
2020/12/30 02:53:37;;;;;;;23.52;14.85;;;;;;;4.69;86.06;99553.13;4976247;28;20117;-64
2020/12/30 02:56:03;;;;;;;24.50;14.43;;;;;;;4.57;86.18;99564.53;4975135;28;20051;-66
2020/12/30 02:58:30;;;;;;;23.15;14.65;;;;;;;4.72;86.57;99562.63;4990623;28;20055;-65
2020/12/30 03:00:57;;;;;;;22.17;13.65;;;;;;;4.87;84.96;99556.84;4975461;28;20043;-65
2020/12/30 03:03:25;;;;;;;24.00;13.73;;;;;;;4.60;85.49;99563.13;4959006;28;20054;-66
2020/12/30 03:05:55;;;;;;;22.00;14.20;;;;;;;4.60;86.10;99563.13;4967942;28;20042;-63
2020/12/30 03:08:22;;;;;;;24.38;14.32;;;;;;;4.52;86.07;99559.19;4975559;28;20054;-66
2020/12/30 03:10:49;;;;;;;24.63;14.18;;;;;;;4.59;86.41;99564.22;4975818;28;20055;-64
2020/12/30 03:13:16;;;;;;;27.10;14.88;;;;;;;4.53;85.63;99565.47;4976045;28;20055;-63
2020/12/30 03:15:43;;;;;;;24.75;14.23;;;;;;;4.60;86.25;99563.94;4975285;28;20058;-63
2020/12/30 03:18:10;;;;;;;23.52;14.23;;;;;;;4.56;86.15;99559.38;4975768;28;20058;-65
2020/12/30 03:20:37;;;;;;;20.92;12.77;;;;;;;4.77;85.40;99568.78;4974987;28;20153;-66
2020/12/30 03:23:04;;;;;;;24.33;14.82;;;;;;;4.78;85.51;99566.88;4975286;28;20410;-63
2020/12/30 03:25:31;;;;;;;23.45;13.88;;;;;;;4.92;84.77;99568.47;4975074;28;20050;-65
2020/12/30 03:27:59;;;;;;;21.83;13.57;;;;;;;4.79;85.02;99573.94;4975612;28;20055;-65
2020/12/30 03:30:26;;;;;;;23.33;14.45;;;;;;;4.68;84.55;99577.97;4975317;28;20066;-65
2020/12/30 03:32:53;;;;;;;24.70;15.02;;;;;;;4.86;84.88;99579.81;4990175;28;20051;-63
2020/12/30 03:35:24;;;;;;;23.63;13.23;;;;;;;4.66;84.43;99581.00;4974308;28;20394;-63
2020/12/30 03:37:53;;;;;;;27.27;13.15;;;;;;;4.52;85.39;99588.34;4976501;28;20047;-63
2020/12/30 03:40:20;;;;;;;20.83;13.43;;;;;;;4.70;85.18;99595.66;4975698;28;20054;-67
2020/12/30 03:42:48;;;;;;;24.67;13.52;;;;;;;4.97;84.29;99606.56;4989846;28;20047;-65
2020/12/30 03:45:15;;;;;;;25.27;13.70;;;;;;;4.94;84.21;99604.47;4974863;28;20051;-64
2020/12/30 03:47:42;;;;;;;22.55;13.90;;;;;;;5.21;83.48;99601.69;4974884;28;20053;-65
2020/12/30 03:50:09;;;;;;;25.70;13.85;;;;;;;4.68;83.53;99610.69;4974831;28;20051;-65
2020/12/30 03:52:36;;;;;;;23.83;14.07;;;;;;;4.79;85.23;99598.50;4974478;28;20042;-66
2020/12/30 03:55:04;;;;;;;21.83;13.40;;;;;;;5.13;83.48;99596.16;4974766;28;20051;-65
2020/12/30 03:57:30;;;;;;;20.60;13.27;;;;;;;5.02;83.44;99605.69;4974557;28;20054;-66
2020/12/30 03:59:57;;;;;;;25.10;14.02;;;;;;;4.73;83.71;99605.13;4974399;28;20054;-66
2020/12/30 04:02:24;;;;;;;23.50;13.70;;;;;;;4.94;83.57;99612.63;4974326;28;20047;-66
2020/12/30 04:04:51;;;;;;;23.08;13.77;;;;;;;5.00;83.90;99611.44;4974624;28;20537;-64
2020/12/30 04:07:18;;;;;;;23.50;13.93;;;;;;;5.23;82.03;99615.06;4974301;28;20077;-66
2020/12/30 04:09:45;;;;;;;27.80;15.07;;;;;;;5.04;82.54;99619.81;4989598;28;20058;-66
2020/12/30 04:12:12;;;;;;;24.95;14.38;;;;;;;5.12;82.80;99619.09;4975400;28;20054;-65
2020/12/30 04:14:39;;;;;;;24.13;13.82;;;;;;;4.77;83.17;99619.81;4975264;28;20054;-66
2020/12/30 04:17:16;;;;;;;24.33;14.63;;;;;;;4.75;84.28;99622.03;4990005;28;20055;-67
2020/12/30 04:19:44;;;;;;;24.08;15.02;;;;;;;4.64;83.82;99628.78;4974198;28;20055;-65
2020/12/30 04:22:11;;;;;;;25.25;15.85;;;;;;;5.16;83.20;99623.63;4974204;28;20054;-65
2020/12/30 04:24:38;;;;;;;23.90;14.63;;;;;;;5.08;81.50;99623.53;4974087;28;20055;-65
2020/12/30 04:27:05;;;;;;;26.80;14.50;;;;;;;5.02;81.44;99631.03;4974647;28;20495;-64
2020/12/30 04:29:32;;;;;;;27.77;15.63;;;;;;;5.06;81.44;99640.22;4972349;28;20055;-66
2020/12/30 04:31:59;;;;;;;25.60;14.05;;;;;;;4.85;81.38;99646.38;4974250;28;20051;-66
2020/12/30 04:34:26;;;;;;;24.95;14.32;;;;;;;4.76;81.49;99640.81;4957120;28;20055;-64
2020/12/30 04:36:53;;;;;;;26.73;15.18;;;;;;;4.75;82.14;99644.66;4988857;28;20051;-65
2020/12/30 04:39:20;;;;;;;25.38;15.30;;;;;;;4.98;81.24;99648.31;4974650;28;20379;-65
2020/12/30 04:41:47;;;;;;;24.02;13.68;;;;;;;5.22;80.86;99647.00;4980607;28;20057;-65
2020/12/30 04:44:16;;;;;;;23.50;15.07;;;;;;;4.97;80.70;99652.16;4956685;28;20052;-63
2020/12/30 04:46:44;;;;;;;29.60;16.17;;;;;;;5.02;81.45;99662.97;4974346;28;20051;-67
2020/12/30 04:53:59;;;;;;;;;;;;;;;4.95;80.21;99666.09;4974868;28;20047;-65
2020/12/30 04:56:41;;;;;;;26.17;14.02;;;;;;;4.72;80.75;99688.09;4973711;28;19929;-64
2020/12/30 04:59:10;;;;;;;24.60;13.07;;;;;;;4.87;80.89;99682.34;4956309;28;20525;-64
2020/12/30 05:01:42;;;;;;;27.17;14.30;;;;;;;5.00;80.34;99687.84;4972986;28;20051;-66
2020/12/30 05:04:11;;;;;;;25.45;14.55;;;;;;;5.15;79.58;99686.72;4957017;28;20074;-65
2020/12/30 05:06:39;;;;;;;24.83;14.37;;;;;;;5.01;79.69;99685.91;4988678;28;20066;-65
2020/12/30 05:09:06;;;;;;;26.35;14.48;;;;;;;5.14;79.22;99699.59;4956650;28;20309;-64
2020/12/30 05:11:34;;;;;;;24.05;14.95;;;;;;;5.09;79.30;99698.88;4956503;28;20128;-66
2020/12/30 05:14:00;;;;;;;29.58;15.38;;;;;;;5.14;79.48;99707.78;4959232;28;20057;-66
2020/12/30 05:16:28;;;;;;;24.90;14.57;;;;;;;5.09;78.79;99716.03;4991881;28;20047;-63
2020/12/30 05:19:04;;;;;;;30.48;15.88;;;;;;;5.06;79.62;99710.38;4977442;28;20051;-64
2020/12/30 05:21:31;;;;;;;27.60;15.55;;;;;;;5.26;79.47;99719.00;4977435;28;20051;-64
2020/12/30 05:23:58;;;;;;;25.33;14.88;;;;;;;5.39;77.65;99723.63;4976753;28;20058;-66
2020/12/30 05:26:27;;;;;;;27.05;14.25;;;;;;;5.25;78.30;99719.28;4976994;28;20047;-66
2020/12/30 05:28:54;;;;;;;26.42;14.27;;;;;;;5.33;78.11;99722.13;4976153;28;20051;-65
2020/12/30 05:31:22;;;;;;;25.55;14.93;;;;;;;5.36;77.46;99724.25;4977459;28;20430;-65
2020/12/30 05:33:49;;;;;;;29.67;15.48;;;;;;;5.27;77.66;99726.06;4977276;28;20057;-63
2020/12/30 05:36:16;;;;;;;26.02;14.43;;;;;;;5.27;78.36;99733.44;4960155;28;20403;-65
2020/12/30 05:38:44;;;;;;;25.02;14.50;;;;;;;5.17;78.09;99725.44;4976881;28;20050;-65
2020/12/30 05:41:21;;;;;;;25.80;14.48;;;;;;;5.19;78.40;99721.31;4976745;28;20371;-66
2020/12/30 05:43:48;;;;;;;29.95;15.30;;;;;;;5.30;77.43;99733.63;4960382;28;20051;-64
2020/12/30 05:46:26;;;;;;;26.63;14.82;;;;;;;5.02;77.38;99744.84;4991032;28;20055;-63
2020/12/30 05:48:53;;;;;;;27.35;14.38;;;;;;;4.95;78.55;99744.44;4977122;28;20046;-64
2020/12/30 05:51:29;;;;;;;27.60;14.57;;;;;;;4.82;78.73;99747.91;4976958;28;20057;-67
2020/12/30 05:54:12;;;;;;;28.45;14.75;;;;;;;5.03;78.09;99757.38;4976910;28;20047;-66
2020/12/30 05:56:43;;;;;;;29.17;15.45;;;;;;;5.06;77.89;99765.75;4990467;28;20065;-67
2020/12/30 05:59:10;;;;;;;26.17;15.30;;;;;;;4.92;77.91;99770.38;4976739;28;20047;-65
2020/12/30 06:01:39;;;;;;;26.75;14.38;;;;;;;4.91;77.96;99766.03;4977213;28;20058;-67
2020/12/30 06:04:17;;;;;;;25.20;14.73;;;;;;;5.07;78.02;99774.78;4977939;28;20047;-65
2020/12/30 06:06:44;;;;;;;28.30;15.23;;;;;;;4.77;78.12;99772.56;4977574;28;20047;-65
2020/12/30 06:09:16;;;;;;;29.63;15.68;;;;;;;4.76;78.46;99769.00;4976477;28;20047;-63
2020/12/30 06:11:54;;;;;;;30.02;15.98;;;;;;;4.76;78.37;99784.59;4976345;28;20053;-66
2020/12/30 06:14:22;;;;;;;24.13;14.05;;;;;;;5.39;76.92;99794.63;4991678;28;20053;-67
2020/12/30 06:16:49;;;;;;;29.05;15.32;;;;;;;5.19;76.27;99794.19;4959551;28;20062;-66
2020/12/30 06:19:16;;;;;;;25.92;14.73;;;;;;;4.87;76.78;99791.47;4976171;28;20061;-64
2020/12/30 06:21:44;;;;;;;27.85;15.02;;;;;;;5.16;76.40;99801.06;4976681;28;20058;-63
2020/12/30 06:24:15;;;;;;;30.52;14.95;;;;;;;5.03;76.69;99806.50;4974921;28;20061;-66
2020/12/30 06:26:45;;;;;;;26.58;15.02;;;;;;;4.92;77.52;99819.50;4976096;28;20054;-66
2020/12/30 06:29:13;;;;;;;27.75;14.13;;;;;;;5.05;76.56;99816.00;4976258;28;20062;-66
2020/12/30 06:31:43;;;;;;;25.67;15.10;;;;;;;4.66;77.84;99825.63;4976334;28;20038;-65
2020/12/30 06:34:14;;;;;;;26.50;15.95;;;;;;;4.67;77.67;99824.56;4974464;28;20058;-66
2020/12/30 06:36:42;;;;;;;26.65;14.93;;;;;;;4.80;77.36;99830.06;4976154;28;20065;-65
2020/12/30 06:39:40;;;;;;;26.98;16.50;;;;;;;4.72;77.97;99846.28;4976003;28;20050;-67
2020/12/30 06:42:07;;;;;;;31.58;15.95;;;;;;;4.60;78.10;99844.81;4958984;28;20046;-67
2020/12/30 06:44:39;;;;;;;26.80;15.27;;;;;;;4.46;79.00;99838.47;4976148;28;20051;-67
2020/12/30 06:47:08;;;;;;;26.17;16.90;;;;;;;4.25;79.47;99845.31;4976897;28;20050;-66
2020/12/30 06:49:37;;;;;;;25.58;15.73;;;;;;;4.28;79.91;99854.81;4977165;28;20525;-66
2020/12/30 06:52:24;;;;;;;24.02;16.27;;;;;;;4.23;80.03;99863.06;4976223;28;20047;-67
2020/12/30 06:54:51;;;;;;;28.77;16.63;;;;;;;4.35;79.89;99867.00;4976678;28;20051;-66
2020/12/30 06:57:37;;;;;;;30.42;15.88;;;;;;;4.43;79.44;99874.50;4975391;28;20061;-66
2020/12/30 07:00:26;;;;;;;26.60;15.63;;;;;;;4.83;77.92;99878.56;4975521;28;20054;-65
2020/12/30 07:07:19;;;;;;;28.15;15.40;;;;;;;4.49;79.18;99884.25;4975411;28;20065;-66
2020/12/30 07:09:46;;;;;;;24.08;15.20;;;;;;;4.76;78.32;99883.59;4975020;28;20486;-65
2020/12/30 07:12:20;;;;;;;23.85;14.95;;;;;;;4.62;78.80;99893.59;4958316;28;20155;-67
2020/12/30 07:14:48;;;;;;;24.85;14.98;;;;;;;4.71;77.48;99896.50;4975000;28;20061;-67
2020/12/30 07:17:19;;;;;;;25.30;14.68;;;;;;;4.55;79.03;99904.88;4975946;28;20063;-66
2020/12/30 07:19:46;;;;;;;25.75;14.98;;;;;;;4.62;78.83;99903.72;4975270;28;20050;-67
2020/12/30 07:30:46;;;;;;;21.33;13.68;;;;;;;4.61;78.97;99938.34;4975493;28;19929;-66
2020/12/30 07:33:13;;;;;;;23.48;14.48;;;;;;;4.50;78.95;99925.94;4990248;28;20051;-65
2020/12/30 07:40:10;;;;;;;26.73;14.77;;;;;;;4.49;78.48;99936.06;4975366;28;20054;-66
2020/12/30 07:43:26;;;;;;;23.40;13.45;;;;;;;4.59;78.90;99935.94;4975358;28;20046;-66
2020/12/30 07:51:04;;;;;;;23.10;13.13;;;;;;;4.87;78.18;99933.34;4974991;28;20062;-67
2020/12/30 07:53:34;;;;;;;24.30;13.82;;;;;;;5.02;77.39;99957.72;4955310;29;20078;-66
2020/12/30 07:59:51;;;;;;;22.42;12.30;;;;;;;4.81;78.21;99956.38;4954179;29;20431;-66
2020/12/30 08:02:38;;;;;;;21.17;13.02;;;;;;;4.79;78.54;99972.22;4940614;29;20151;-66
2020/12/30 08:05:28;;;;;;;21.63;12.43;;;;;;;4.73;78.05;99968.75;4953728;29;20055;-67
2020/12/30 08:16:49;;;;;;;22.98;13.45;;;;;;;4.66;78.27;99995.56;4952980;29;20054;-66
2020/12/30 08:28:44;;;;;;;20.13;11.50;;;;;;;4.90;78.07;100009.19;4966900;28;20486;-65
2020/12/30 08:44:35;;;;;;;20.23;12.00;;;;;;;5.04;77.36;100023.72;4974490;28;20066;-67
2020/12/30 08:52:20;;;;;;;18.88;11.82;;;;;;;5.13;76.88;100021.94;4978828;28;20054;-66
2020/12/30 09:00:13;;;;;;;18.83;10.75;;;;;;;5.40;75.61;100036.56;4978004;28;20039;-66
2020/12/30 09:24:11;;;;;;;15.98;10.52;;;;;;;5.79;73.67;100068.22;4977347;28;19918;-66
2020/12/30 11:00:56;;;;;;;17.45;9.45;;;;;;;6.51;72.55;100109.34;4892768;29;20069;-66
2020/12/30 11:03:23;;;;;;;13.30;8.88;;;;;;;7.00;72.44;100114.16;4895268;29;20057;-63
2020/12/30 11:05:57;;;;;;;16.63;8.93;;;;;;;6.98;71.16;100115.56;4886738;29;20052;-64
2020/12/30 11:08:24;;;;;;;15.70;9.23;;;;;;;7.02;71.82;100113.84;4910070;29;20056;-65
2020/12/30 11:10:51;;;;;;;16.02;9.35;;;;;;;7.10;72.06;100110.41;4899913;29;20436;-64
2020/12/30 11:13:25;;;;;;;15.40;9.10;;;;;;;7.06;70.77;100109.41;4896743;29;20052;-62
2020/12/30 11:15:58;;;;;;;15.02;9.57;;;;;;;7.30;70.14;100113.53;4894910;29;20067;-64
2020/12/30 11:18:26;;;;;;;15.23;9.73;;;;;;;7.31;70.62;100108.84;4897628;29;20404;-62
2020/12/30 11:21:12;;;;;;;15.68;9.13;;;;;;;7.46;70.26;100097.59;4891152;29;20052;-61
2020/12/30 11:23:59;;;;;;;16.13;9.45;;;;;;;7.55;69.69;100093.78;4882895;29;20052;-63
2020/12/30 11:26:33;;;;;;;14.30;8.73;;;;;;;7.29;70.00;100098.22;4897893;29;20056;-64
2020/12/30 11:29:00;;;;;;;17.02;9.43;;;;;;;7.45;69.14;100096.75;4897470;29;20068;-61
2020/12/30 11:31:28;;;;;;;18.30;9.38;;;;;;;7.28;69.82;100102.06;4896805;29;20412;-64
2020/12/30 11:33:58;;;;;;;13.73;9.13;;;;;;;7.43;69.94;100107.22;4893143;29;20182;-67
2020/12/30 11:36:28;;;;;;;17.55;8.85;;;;;;;7.73;68.45;100095.56;4896827;29;20060;-64
2020/12/30 11:38:55;;;;;;;16.23;9.48;;;;;;;7.57;68.41;100102.53;4870546;29;20068;-64
2020/12/30 11:41:28;;;;;;;14.90;8.80;;;;;;;7.81;68.53;100105.78;4888922;29;20075;-64
2020/12/30 11:44:04;;;;;;;17.70;9.48;;;;;;;7.47;69.02;100113.72;4897140;29;20515;-62
2020/12/30 11:46:32;;;;;;;23.15;9.80;;;;;;;7.49;69.05;100096.97;4896699;29;20064;-65
2020/12/30 11:48:58;;;;;;;17.92;9.98;;;;;;;7.59;68.85;100097.53;4859553;29;20063;-65
2020/12/30 11:51:25;;;;;;;16.65;9.38;;;;;;;7.64;68.74;100091.94;4885335;29;20057;-65
2020/12/30 11:53:52;;;;;;;17.48;9.07;;;;;;;7.51;68.93;100094.72;4873051;29;20535;-65
2020/12/30 11:56:22;;;;;;;15.80;8.88;;;;;;;7.54;68.81;100091.38;4889207;29;20404;-64
2020/12/30 11:58:49;;;;;;;16.65;9.05;;;;;;;7.61;68.87;100098.06;4899730;29;20059;-65
2020/12/30 12:01:16;;;;;;;15.30;8.95;;;;;;;7.73;68.75;100098.31;4905622;29;20051;-65
2020/12/30 12:03:44;;;;;;;13.90;8.35;;;;;;;7.88;68.34;100095.22;4899314;29;20075;-65
2020/12/30 12:06:11;;;;;;;18.35;9.02;;;;;;;7.71;68.14;100091.50;4900866;29;20047;-64
2020/12/30 12:08:39;;;;;;;15.93;10.32;;;;;;;7.80;68.10;100086.91;4886804;29;20081;-64
2020/12/30 12:11:06;;;;;;;18.45;9.98;;;;;;;7.70;68.42;100081.69;4895778;29;20052;-63
2020/12/30 12:13:33;;;;;;;12.45;7.78;;;;;;;7.71;68.49;100092.31;4896158;29;20045;-62
2020/12/30 12:16:00;;;;;;;15.38;7.63;;;;;;;7.99;67.80;100087.53;4878488;29;20049;-62
2020/12/30 12:18:28;;;;;;;11.63;7.18;;;;;;;7.92;67.88;100082.50;4877933;29;20060;-65
2020/12/30 12:20:55;;;;;;;16.55;7.70;;;;;;;7.82;68.23;100085.50;4885279;29;20071;-65
2020/12/30 12:23:25;;;;;;;16.70;7.72;;;;;;;8.13;67.25;100079.25;4895302;29;20052;-67
2020/12/30 12:25:51;;;;;;;12.70;7.25;;;;;;;8.08;67.61;100082.94;4896762;29;20408;-65
2020/12/30 12:28:54;;;;;;;16.42;7.03;;;;;;;8.28;67.29;100081.66;4897414;29;20072;-67
2020/12/30 12:31:21;;;;;;;11.40;6.93;;;;;;;8.47;67.14;100076.75;4807637;29;20059;-65
2020/12/30 12:33:48;;;;;;;14.57;7.18;;;;;;;8.59;66.54;100082.47;4800640;29;20424;-67
2020/12/30 12:36:16;;;;;;;10.68;5.65;;;;;;;8.64;65.88;100085.88;4801486;29;20530;-66
2020/12/30 12:38:43;;;;;;;10.05;5.40;;;;;;;8.23;66.24;100082.53;4801189;29;20050;-67
2020/12/30 12:41:10;;;;;;;13.32;5.65;;;;;;;8.33;66.37;100085.09;4812466;29;20496;-66
2020/12/30 12:43:37;;;;;;;11.80;5.57;;;;;;;8.31;66.26;100092.00;4783029;29;20175;-66
2020/12/30 12:46:16;;;;;;;10.43;5.35;;;;;;;8.60;66.29;100090.38;4799846;29;20055;-64
2020/12/30 12:48:45;;;;;;;10.52;5.18;;;;;;;8.63;65.64;100089.75;4802095;29;20070;-65
2020/12/30 12:51:12;;;;;;;12.90;5.70;;;;;;;8.99;65.01;100093.16;4802322;29;20066;-66
2020/12/30 12:53:39;;;;;;;14.60;5.68;;;;;;;8.74;64.82;100087.53;4800305;29;20554;-66
2020/12/30 12:56:08;;;;;;;16.92;6.00;;;;;;;8.62;64.92;100090.06;4795414;29;20066;-67
2020/12/30 12:58:36;;;;;;;16.13;5.05;;;;;;;8.69;65.16;100093.16;4796972;29;20055;-64
2020/12/30 13:01:07;;;;;;;12.77;5.05;;;;;;;8.81;64.61;100087.88;4797673;29;20411;-65
2020/12/30 13:03:33;;;;;;;13.45;5.65;;;;;;;8.45;64.99;100093.53;4797355;29;20619;-66
2020/12/30 13:06:01;;;;;;;13.63;5.60;;;;;;;8.47;65.68;100093.22;4794151;29;20051;-64
2020/12/30 13:08:31;;;;;;;12.27;4.97;;;;;;;8.33;65.37;100087.81;4837996;29;20428;-65
2020/12/30 13:10:58;;;;;;;10.10;5.22;;;;;;;8.60;65.27;100082.16;4882772;29;20518;-67
2020/12/30 13:13:25;;;;;;;12.07;5.03;;;;;;;8.29;66.17;100092.31;4881628;29;20075;-66
2020/12/30 13:15:52;;;;;;;8.25;4.47;;;;;;;8.26;66.17;100087.47;4879279;29;20045;-63
2020/12/30 13:18:19;;;;;;;12.02;4.53;;;;;;;8.36;65.78;100094.59;4886326;29;20040;-64
2020/12/30 13:20:46;;;;;;;11.05;4.93;;;;;;;8.45;65.40;100089.97;4885255;29;20052;-62
2020/12/30 13:23:12;;;;;;;13.57;4.72;;;;;;;8.40;65.42;100095.59;4871425;29;20045;-62
2020/12/30 13:25:40;;;;;;;14.85;5.10;;;;;;;8.34;65.87;100094.91;4889028;29;20815;-64
2020/12/30 13:28:06;;;;;;;8.77;4.40;;;;;;;8.54;65.45;100091.63;4889576;29;20055;-66
2020/12/30 13:30:33;;;;;;;10.55;4.65;;;;;;;8.50;64.90;100092.59;4889097;29;20045;-63
2020/12/30 13:33:00;;;;;;;10.57;4.45;;;;;;;8.30;65.13;100096.66;4888746;29;20048;-66
2020/12/30 13:35:37;;;;;;;10.60;4.72;;;;;;;8.49;65.40;100094.50;4889938;29;20059;-64
2020/12/30 13:38:04;;;;;;;8.35;4.15;;;;;;;8.44;65.55;100094.66;4899210;29;20052;-63
2020/12/30 13:40:31;;;;;;;9.48;4.90;;;;;;;8.52;65.54;100095.84;4899680;29;20056;-63
2020/12/30 13:42:58;;;;;;;12.02;4.47;;;;;;;8.39;65.47;100100.28;4897240;29;20060;-64
2020/12/30 13:45:25;;;;;;;16.70;4.38;;;;;;;8.48;65.40;100087.41;4893059;29;20055;-66
2020/12/30 13:47:52;;;;;;;11.70;4.63;;;;;;;8.58;65.12;100083.56;4892757;29;20068;-65
2020/12/30 13:50:20;;;;;;;10.50;4.78;;;;;;;8.65;64.94;100090.25;4897991;29;20505;-69
2020/12/30 13:52:47;;;;;;;11.38;4.95;;;;;;;8.82;64.72;100089.53;4893594;29;20060;-69
2020/12/30 13:55:14;;;;;;;9.40;4.85;;;;;;;8.75;64.94;100089.16;4888588;29;20056;-63
2020/12/30 13:57:41;;;;;;;13.90;5.63;;;;;;;8.90;64.80;100084.06;4889588;29;20053;-65
2020/12/30 14:00:08;;;;;;;8.45;4.30;;;;;;;8.89;64.64;100089.88;4893305;29;20055;-65
2020/12/30 14:02:35;;;;;;;11.75;4.75;;;;;;;8.82;64.47;100089.53;4889484;29;20048;-66
2020/12/30 14:05:03;;;;;;;14.52;5.10;;;;;;;8.88;64.12;100080.81;4889502;29;20057;-66
2020/12/30 14:07:31;;;;;;;9.95;4.10;;;;;;;9.16;63.91;100077.81;4890652;29;20404;-65
2020/12/30 14:09:58;;;;;;;12.75;4.30;;;;;;;9.11;62.75;100084.28;4890997;29;20053;-68
2020/12/30 14:12:25;;;;;;;11.57;3.92;;;;;;;9.12;62.41;100082.34;4897032;29;20052;-66
2020/12/30 14:14:51;;;;;;;8.48;2.90;;;;;;;9.13;61.84;100083.97;4898650;29;20053;-66
2020/12/30 14:17:18;;;;;;;9.07;3.05;;;;;;;9.28;61.46;100086.25;4898534;29;20048;-72
2020/12/30 14:19:46;;;;;;;8.18;2.80;;;;;;;9.15;61.02;100087.22;4882599;29;20504;-65
2020/12/30 14:22:13;;;;;;;9.88;2.35;;;;;;;9.05;61.36;100088.28;4898016;29;20063;-64
2020/12/30 14:24:40;;;;;;;11.27;2.70;;;;;;;8.84;61.74;100092.75;4894423;29;20049;-65
2020/12/30 14:27:10;;;;;;;7.57;2.65;;;;;;;8.90;61.75;100095.03;4897306;29;20063;-66
2020/12/30 14:29:37;;;;;;;8.70;3.03;;;;;;;8.61;62.11;100102.19;4891097;29;20045;-67
2020/12/30 14:32:04;;;;;;;9.73;3.13;;;;;;;8.79;61.97;100099.19;4898494;29;20501;-72
2020/12/30 14:34:33;;;;;;;10.85;3.17;;;;;;;8.69;62.18;100104.97;4886167;29;20075;-65
2020/12/30 14:37:01;;;;;;;9.23;4.55;;;;;;;8.73;62.31;100105.16;4893029;29;20053;-68
2020/12/30 14:39:29;;;;;;;8.60;3.83;;;;;;;8.86;62.43;100105.03;4884490;29;20041;-69
2020/12/30 14:41:57;;;;;;;8.32;3.47;;;;;;;8.86;63.07;100115.22;4898609;29;20060;-66
2020/12/30 14:44:32;;;;;;;8.60;3.70;;;;;;;8.71;63.18;100118.38;4882164;29;20048;-67
2020/12/30 14:47:00;;;;;;;8.68;3.90;;;;;;;8.75;62.82;100117.41;4880768;29;20052;-67
2020/12/30 14:49:27;;;;;;;9.68;3.88;;;;;;;8.60;63.44;100122.50;4882249;29;20052;-65
2020/12/30 14:51:54;;;;;;;10.10;4.32;;;;;;;8.55;63.95;100126.22;4896181;29;20149;-65
2020/12/30 14:54:26;;;;;;;12.50;5.82;;;;;;;8.59;63.80;100123.66;4898093;29;20052;-66
2020/12/30 14:57:14;;;;;;;14.18;6.03;;;;;;;8.62;64.05;100120.25;4899001;29;20500;-66
2020/12/30 14:59:46;;;;;;;11.60;5.15;;;;;;;8.43;64.46;100127.91;4895680;29;20056;-66
2020/12/30 15:02:14;;;;;;;15.52;7.13;;;;;;;8.38;64.86;100122.53;4886743;29;20049;-67
2020/12/30 15:04:42;;;;;;;9.13;4.78;;;;;;;8.37;64.75;100129.97;4866101;29;20520;-65
2020/12/30 15:07:09;;;;;;;11.32;5.97;;;;;;;8.27;64.64;100118.44;4907079;29;20055;-68
2020/12/30 15:09:37;;;;;;;14.32;5.28;;;;;;;8.42;64.85;100127.09;4864161;29;20127;-68
2020/12/30 15:12:05;;;;;;;12.48;6.18;;;;;;;8.31;64.89;100127.66;4875949;29;20068;-66
2020/12/30 15:14:32;;;;;;;11.90;4.70;;;;;;;8.36;65.06;100120.13;4883382;29;20060;-66
2020/12/30 15:17:03;;;;;;;11.68;5.38;;;;;;;8.40;64.99;100131.28;4863690;29;20539;-66
2020/12/30 15:19:40;;;;;;;14.23;7.25;;;;;;;8.28;65.18;100129.09;4879744;29;20413;-65